This is the latest recevied weather packets stored in our database for station/object EA4IAJ-12. If no packets are shown the sender has not sent any weather packets the latest 10 day(s).
| Time | Temp. | Humidity | Pressure | Rain* | Wind** | Luminosity | Snow |
|---|---|---|---|---|---|---|---|
| 1787448074 | 21.11° C | 43% | 998.5 hPa | - | - | - | - |
| 1787447173 | 20.56° C | 41% | 995.8 hPa | - | - | - | - |
| 1787446273 | 21.11° C | 39% | 996.6 hPa | - | - | - | - |
| 1787445372 | 21.11° C | 38% | 997.6 hPa | - | - | - | - |
| 1787444472 | 20.56° C | 38% | 994.5 hPa | - | - | - | - |
| 1787443571 | 21.11° C | 37% | 996.4 hPa | - | - | - | - |
| 1787442671 | 21.67° C | 37% | 998.4 hPa | - | - | - | - |
| 1787441770 | 21.67° C | 36% | 998.8 hPa | - | - | - | - |
| 1787440869 | 20° C | 36% | 992.6 hPa | - | - | - | - |
| 1787439969 | 20° C | 35% | 992 hPa | - | - | - | - |
| 1787439068 | 21.11° C | 34% | 994.6 hPa | - | - | - | - |
| 1787438168 | 22.22° C | 34% | 998.5 hPa | - | - | - | - |
| 1787437267 | 23.89° C | 34% | 1003.6 hPa | - | - | - | - |
| 1787436367 | 23.89° C | 33% | 1003.2 hPa | - | - | - | - |
| 1787435484 | 24.44° C | 33% | 1006.1 hPa | - | - | - | - |
| 1787434583 | 24.44° C | 33% | 1005.9 hPa | - | - | - | - |
| 1787433683 | 25° C | 32% | 1007 hPa | - | - | - | - |
| 1787432782 | 25.56° C | 32% | 1009.3 hPa | - | - | - | - |
| 1787431882 | 25.56° C | 32% | 1010.5 hPa | - | - | - | - |
| 1787430981 | 26.11° C | 32% | 1012.1 hPa | - | - | - | - |
| 1787430081 | 26.67° C | 31% | 1013.9 hPa | - | - | - | - |
| 1787429180 | 27.22° C | 31% | 1015.7 hPa | - | - | - | - |
| 1787428290 | 27.78° C | 30% | 1016.5 hPa | - | - | - | - |
| 1787427379 | 26.67° C | 30% | 1012.8 hPa | - | - | - | - |
| 1787426478 | 27.78° C | 29% | 1017.6 hPa | - | - | - | - |
* Rain since midnight (hover to see other rain measurements)
** Current wind speed in m/s (hover to see current wind gust speed)